sensor_id;sensor_type;location;lat;lon;timestamp;P1;durP1;ratioP1;P2;durP2;ratioP2
29430;SDS011;16404;49.902;10.074;2023-03-01T00:02:25;33.55;;;16.70;;
29430;SDS011;16404;49.902;10.074;2023-03-01T00:05:09;33.33;;;17.33;;
29430;SDS011;16404;49.902;10.074;2023-03-01T00:07:54;30.92;;;17.38;;
29430;SDS011;16404;49.902;10.074;2023-03-01T00:10:38;34.72;;;17.20;;
29430;SDS011;16404;49.902;10.074;2023-03-01T00:13:23;35.65;;;16.73;;
29430;SDS011;16404;49.902;10.074;2023-03-01T00:16:08;27.85;;;15.85;;
29430;SDS011;16404;49.902;10.074;2023-03-01T00:18:55;33.53;;;17.98;;
29430;SDS011;16404;49.902;10.074;2023-03-01T00:21:40;32.17;;;16.50;;
29430;SDS011;16404;49.902;10.074;2023-03-01T00:24:24;31.55;;;15.80;;
29430;SDS011;16404;49.902;10.074;2023-03-01T00:27:09;33.13;;;17.38;;
29430;SDS011;16404;49.902;10.074;2023-03-01T00:29:54;32.08;;;16.40;;
29430;SDS011;16404;49.902;10.074;2023-03-01T00:32:38;29.17;;;16.20;;
29430;SDS011;16404;49.902;10.074;2023-03-01T00:35:23;35.65;;;17.35;;
29430;SDS011;16404;49.902;10.074;2023-03-01T00:38:08;36.70;;;17.40;;
29430;SDS011;16404;49.902;10.074;2023-03-01T00:40:52;34.72;;;16.73;;
29430;SDS011;16404;49.902;10.074;2023-03-01T00:43:37;36.95;;;16.77;;
29430;SDS011;16404;49.902;10.074;2023-03-01T00:46:23;33.70;;;16.52;;
29430;SDS011;16404;49.902;10.074;2023-03-01T00:49:09;33.10;;;17.35;;
29430;SDS011;16404;49.902;10.074;2023-03-01T00:51:53;33.67;;;17.75;;
29430;SDS011;16404;49.902;10.074;2023-03-01T00:54:40;33.75;;;17.45;;
29430;SDS011;16404;49.902;10.074;2023-03-01T00:57:26;35.85;;;17.42;;
29430;SDS011;16404;49.902;10.074;2023-03-01T01:02:55;32.55;;;16.55;;
29430;SDS011;16404;49.902;10.074;2023-03-01T01:05:40;29.63;;;16.05;;
29430;SDS011;16404;49.902;10.074;2023-03-01T01:08:24;29.73;;;16.15;;
29430;SDS011;16404;49.902;10.074;2023-03-01T01:11:10;31.05;;;16.13;;
29430;SDS011;16404;49.902;10.074;2023-03-01T01:13:55;34.13;;;16.08;;
29430;SDS011;16404;49.902;10.074;2023-03-01T01:16:40;31.00;;;16.92;;
29430;SDS011;16404;49.902;10.074;2023-03-01T01:19:25;29.30;;;16.83;;
29430;SDS011;16404;49.902;10.074;2023-03-01T01:22:10;31.25;;;15.98;;
29430;SDS011;16404;49.902;10.074;2023-03-01T01:24:55;31.15;;;17.38;;
29430;SDS011;16404;49.902;10.074;2023-03-01T01:27:39;33.58;;;17.42;;
29430;SDS011;16404;49.902;10.074;2023-03-01T01:30:24;32.88;;;17.42;;
29430;SDS011;16404;49.902;10.074;2023-03-01T01:33:08;36.40;;;17.60;;
29430;SDS011;16404;49.902;10.074;2023-03-01T01:35:53;36.70;;;18.60;;
29430;SDS011;16404;49.902;10.074;2023-03-01T01:38:38;33.00;;;17.20;;
29430;SDS011;16404;49.902;10.074;2023-03-01T01:41:23;33.92;;;16.70;;
29430;SDS011;16404;49.902;10.074;2023-03-01T01:44:15;31.63;;;16.92;;
29430;SDS011;16404;49.902;10.074;2023-03-01T01:47:06;30.45;;;16.40;;
29430;SDS011;16404;49.902;10.074;2023-03-01T01:49:58;34.17;;;17.63;;
29430;SDS011;16404;49.902;10.074;2023-03-01T01:52:42;33.25;;;16.73;;
29430;SDS011;16404;49.902;10.074;2023-03-01T01:55:27;34.13;;;15.98;;
29430;SDS011;16404;49.902;10.074;2023-03-01T01:58:12;34.13;;;17.50;;
29430;SDS011;16404;49.902;10.074;2023-03-01T02:00:59;34.15;;;16.92;;
29430;SDS011;16404;49.902;10.074;2023-03-01T02:03:45;34.22;;;17.02;;
29430;SDS011;16404;49.902;10.074;2023-03-01T02:06:32;34.28;;;18.08;;
29430;SDS011;16404;49.902;10.074;2023-03-01T02:09:20;34.78;;;17.38;;
29430;SDS011;16404;49.902;10.074;2023-03-01T02:12:07;33.08;;;16.73;;
29430;SDS011;16404;49.902;10.074;2023-03-01T02:14:52;31.52;;;17.55;;
29430;SDS011;16404;49.902;10.074;2023-03-01T02:17:36;35.22;;;17.27;;
29430;SDS011;16404;49.902;10.074;2023-03-01T02:23:18;35.55;;;17.25;;
29430;SDS011;16404;49.902;10.074;2023-03-01T02:26:20;34.47;;;18.17;;
29430;SDS011;16404;49.902;10.074;2023-03-01T02:29:18;35.15;;;16.70;;
29430;SDS011;16404;49.902;10.074;2023-03-01T02:32:04;36.78;;;17.35;;
29430;SDS011;16404;49.902;10.074;2023-03-01T02:34:49;37.33;;;18.77;;
29430;SDS011;16404;49.902;10.074;2023-03-01T02:37:38;37.28;;;18.55;;
29430;SDS011;16404;49.902;10.074;2023-03-01T02:40:25;40.15;;;19.63;;
29430;SDS011;16404;49.902;10.074;2023-03-01T02:43:09;32.97;;;18.45;;
29430;SDS011;16404;49.902;10.074;2023-03-01T02:45:58;36.53;;;18.73;;
29430;SDS011;16404;49.902;10.074;2023-03-01T02:48:48;39.08;;;17.88;;
29430;SDS011;16404;49.902;10.074;2023-03-01T02:57:55;39.50;;;17.55;;
29430;SDS011;16404;49.902;10.074;2023-03-01T03:00:41;37.22;;;18.15;;
29430;SDS011;16404;49.902;10.074;2023-03-01T03:03:32;39.03;;;18.90;;
29430;SDS011;16404;49.902;10.074;2023-03-01T03:06:17;40.35;;;18.80;;
29430;SDS011;16404;49.902;10.074;2023-03-01T03:09:02;36.78;;;18.25;;
29430;SDS011;16404;49.902;10.074;2023-03-01T03:11:48;35.67;;;17.10;;
29430;SDS011;16404;49.902;10.074;2023-03-01T03:14:33;35.13;;;17.88;;
29430;SDS011;16404;49.902;10.074;2023-03-01T03:17:20;38.65;;;18.38;;
29430;SDS011;16404;49.902;10.074;2023-03-01T03:20:05;33.63;;;17.60;;
29430;SDS011;16404;49.902;10.074;2023-03-01T03:22:56;35.65;;;17.92;;
29430;SDS011;16404;49.902;10.074;2023-03-01T03:25:42;34.33;;;17.48;;
29430;SDS011;16404;49.902;10.074;2023-03-01T03:28:26;37.25;;;18.45;;
29430;SDS011;16404;49.902;10.074;2023-03-01T03:31:11;30.77;;;16.45;;
29430;SDS011;16404;49.902;10.074;2023-03-01T03:33:56;34.53;;;16.52;;
29430;SDS011;16404;49.902;10.074;2023-03-01T03:36:40;33.08;;;17.42;;
29430;SDS011;16404;49.902;10.074;2023-03-01T03:39:26;35.25;;;17.98;;
29430;SDS011;16404;49.902;10.074;2023-03-01T03:42:10;34.92;;;18.67;;
29430;SDS011;16404;49.902;10.074;2023-03-01T03:44:55;41.60;;;18.13;;
29430;SDS011;16404;49.902;10.074;2023-03-01T03:47:39;36.63;;;18.00;;
29430;SDS011;16404;49.902;10.074;2023-03-01T03:50:24;33.53;;;17.60;;
29430;SDS011;16404;49.902;10.074;2023-03-01T03:53:10;37.75;;;17.85;;
29430;SDS011;16404;49.902;10.074;2023-03-01T03:55:56;33.53;;;17.55;;
29430;SDS011;16404;49.902;10.074;2023-03-01T03:58:40;32.97;;;17.95;;
29430;SDS011;16404;49.902;10.074;2023-03-01T04:01:25;29.27;;;16.17;;
29430;SDS011;16404;49.902;10.074;2023-03-01T04:04:10;34.25;;;17.13;;
29430;SDS011;16404;49.902;10.074;2023-03-01T04:06:54;33.08;;;16.83;;
29430;SDS011;16404;49.902;10.074;2023-03-01T04:09:39;32.95;;;16.73;;
29430;SDS011;16404;49.902;10.074;2023-03-01T04:12:25;36.00;;;17.05;;
29430;SDS011;16404;49.902;10.074;2023-03-01T04:15:10;33.95;;;17.98;;
29430;SDS011;16404;49.902;10.074;2023-03-01T04:17:58;30.80;;;16.20;;
29430;SDS011;16404;49.902;10.074;2023-03-01T04:20:43;32.70;;;16.25;;
29430;SDS011;16404;49.902;10.074;2023-03-01T04:23:28;35.55;;;16.55;;
29430;SDS011;16404;49.902;10.074;2023-03-01T04:26:13;32.25;;;16.98;;
29430;SDS011;16404;49.902;10.074;2023-03-01T04:28:58;34.83;;;17.10;;
29430;SDS011;16404;49.902;10.074;2023-03-01T04:31:42;36.08;;;17.30;;
29430;SDS011;16404;49.902;10.074;2023-03-01T04:34:27;35.38;;;17.50;;
29430;SDS011;16404;49.902;10.074;2023-03-01T04:37:11;32.83;;;16.83;;
29430;SDS011;16404;49.902;10.074;2023-03-01T04:39:56;35.38;;;17.23;;
29430;SDS011;16404;49.902;10.074;2023-03-01T04:42:41;32.45;;;16.65;;
29430;SDS011;16404;49.902;10.074;2023-03-01T04:45:26;36.10;;;17.85;;
29430;SDS011;16404;49.902;10.074;2023-03-01T04:48:11;36.40;;;17.50;;
29430;SDS011;16404;49.902;10.074;2023-03-01T04:50:56;35.05;;;17.02;;
29430;SDS011;16404;49.902;10.074;2023-03-01T04:53:41;31.20;;;16.38;;
29430;SDS011;16404;49.902;10.074;2023-03-01T04:56:26;32.55;;;16.88;;
29430;SDS011;16404;49.902;10.074;2023-03-01T04:59:10;31.75;;;17.13;;
29430;SDS011;16404;49.902;10.074;2023-03-01T05:01:56;33.60;;;17.75;;
29430;SDS011;16404;49.902;10.074;2023-03-01T05:04:41;35.70;;;17.17;;
29430;SDS011;16404;49.902;10.074;2023-03-01T05:07:25;37.47;;;18.42;;
29430;SDS011;16404;49.902;10.074;2023-03-01T05:10:10;34.45;;;17.02;;
29430;SDS011;16404;49.902;10.074;2023-03-01T05:12:55;37.60;;;17.70;;
29430;SDS011;16404;49.902;10.074;2023-03-01T05:15:41;36.50;;;17.42;;
29430;SDS011;16404;49.902;10.074;2023-03-01T05:18:26;33.40;;;16.25;;
29430;SDS011;16404;49.902;10.074;2023-03-01T05:21:13;36.53;;;18.08;;
29430;SDS011;16404;49.902;10.074;2023-03-01T05:24:00;37.03;;;17.42;;
29430;SDS011;16404;49.902;10.074;2023-03-01T05:26:44;42.13;;;18.70;;
29430;SDS011;16404;49.902;10.074;2023-03-01T05:29:30;34.60;;;18.00;;
29430;SDS011;16404;49.902;10.074;2023-03-01T05:32:15;37.60;;;19.45;;
29430;SDS011;16404;49.902;10.074;2023-03-01T05:34:59;42.25;;;22.13;;
29430;SDS011;16404;49.902;10.074;2023-03-01T05:37:45;43.78;;;20.73;;
29430;SDS011;16404;49.902;10.074;2023-03-01T05:40:32;39.55;;;20.20;;
29430;SDS011;16404;49.902;10.074;2023-03-01T05:43:17;42.50;;;19.98;;
29430;SDS011;16404;49.902;10.074;2023-03-01T05:46:02;43.05;;;21.05;;
29430;SDS011;16404;49.902;10.074;2023-03-01T05:48:46;53.40;;;27.35;;
29430;SDS011;16404;49.902;10.074;2023-03-01T05:51:32;36.60;;;18.23;;
29430;SDS011;16404;49.902;10.074;2023-03-01T05:54:17;34.63;;;18.85;;
29430;SDS011;16404;49.902;10.074;2023-03-01T05:57:02;35.70;;;18.85;;
29430;SDS011;16404;49.902;10.074;2023-03-01T05:59:47;37.53;;;17.85;;
29430;SDS011;16404;49.902;10.074;2023-03-01T06:02:31;40.00;;;19.58;;
29430;SDS011;16404;49.902;10.074;2023-03-01T06:05:16;32.53;;;19.10;;
29430;SDS011;16404;49.902;10.074;2023-03-01T06:08:00;39.90;;;19.15;;
29430;SDS011;16404;49.902;10.074;2023-03-01T06:16:15;48.80;;;23.42;;
29430;SDS011;16404;49.902;10.074;2023-03-01T06:18:59;40.70;;;19.08;;
29430;SDS011;16404;49.902;10.074;2023-03-01T06:21:44;34.67;;;17.85;;
29430;SDS011;16404;49.902;10.074;2023-03-01T06:24:29;37.78;;;19.60;;
29430;SDS011;16404;49.902;10.074;2023-03-01T06:27:13;35.38;;;17.88;;
29430;SDS011;16404;49.902;10.074;2023-03-01T06:29:58;36.42;;;19.63;;
29430;SDS011;16404;49.902;10.074;2023-03-01T06:32:42;37.97;;;19.42;;
29430;SDS011;16404;49.902;10.074;2023-03-01T06:35:27;34.60;;;18.13;;
29430;SDS011;16404;49.902;10.074;2023-03-01T06:38:13;35.83;;;17.45;;
29430;SDS011;16404;49.902;10.074;2023-03-01T06:40:58;35.30;;;18.15;;
29430;SDS011;16404;49.902;10.074;2023-03-01T06:43:43;34.28;;;18.17;;
29430;SDS011;16404;49.902;10.074;2023-03-01T06:46:27;34.08;;;19.00;;
29430;SDS011;16404;49.902;10.074;2023-03-01T06:49:12;37.85;;;19.23;;
29430;SDS011;16404;49.902;10.074;2023-03-01T06:51:57;35.78;;;18.48;;
29430;SDS011;16404;49.902;10.074;2023-03-01T06:54:41;38.05;;;18.42;;
29430;SDS011;16404;49.902;10.074;2023-03-01T06:57:26;36.03;;;18.90;;
29430;SDS011;16404;49.902;10.074;2023-03-01T07:00:11;39.95;;;18.83;;
29430;SDS011;16404;49.902;10.074;2023-03-01T07:03:00;34.67;;;19.38;;
29430;SDS011;16404;49.902;10.074;2023-03-01T07:05:48;41.10;;;19.17;;
29430;SDS011;16404;49.902;10.074;2023-03-01T07:08:33;37.47;;;18.63;;
29430;SDS011;16404;49.902;10.074;2023-03-01T07:11:17;44.00;;;18.85;;
29430;SDS011;16404;49.902;10.074;2023-03-01T07:14:02;39.15;;;18.20;;
29430;SDS011;16404;49.902;10.074;2023-03-01T07:16:46;36.03;;;17.67;;
29430;SDS011;16404;49.902;10.074;2023-03-01T07:19:32;39.20;;;19.23;;
29430;SDS011;16404;49.902;10.074;2023-03-01T07:22:16;35.92;;;19.08;;
29430;SDS011;16404;49.902;10.074;2023-03-01T07:25:01;41.83;;;19.42;;
29430;SDS011;16404;49.902;10.074;2023-03-01T07:27:49;36.35;;;19.35;;
29430;SDS011;16404;49.902;10.074;2023-03-01T07:30:36;33.75;;;17.85;;
29430;SDS011;16404;49.902;10.074;2023-03-01T07:33:21;33.92;;;18.85;;
29430;SDS011;16404;49.902;10.074;2023-03-01T07:36:06;36.60;;;18.40;;
29430;SDS011;16404;49.902;10.074;2023-03-01T07:38:51;37.47;;;19.15;;
29430;SDS011;16404;49.902;10.074;2023-03-01T07:41:35;36.90;;;19.17;;
29430;SDS011;16404;49.902;10.074;2023-03-01T07:47:04;34.95;;;18.17;;
29430;SDS011;16404;49.902;10.074;2023-03-01T07:49:49;39.60;;;18.40;;
29430;SDS011;16404;49.902;10.074;2023-03-01T07:52:33;33.13;;;17.85;;
29430;SDS011;16404;49.902;10.074;2023-03-01T07:55:18;36.53;;;18.30;;
29430;SDS011;16404;49.902;10.074;2023-03-01T07:58:04;42.67;;;18.90;;
29430;SDS011;16404;49.902;10.074;2023-03-01T08:00:48;35.78;;;17.80;;
29430;SDS011;16404;49.902;10.074;2023-03-01T08:03:33;36.22;;;19.10;;
29430;SDS011;16404;49.902;10.074;2023-03-01T08:06:18;37.28;;;18.45;;
29430;SDS011;16404;49.902;10.074;2023-03-01T08:09:03;33.63;;;18.35;;
29430;SDS011;16404;49.902;10.074;2023-03-01T08:11:48;34.95;;;19.13;;
29430;SDS011;16404;49.902;10.074;2023-03-01T08:14:32;37.15;;;18.58;;
29430;SDS011;16404;49.902;10.074;2023-03-01T08:17:17;34.13;;;18.38;;
29430;SDS011;16404;49.902;10.074;2023-03-01T08:20:02;37.05;;;20.20;;
29430;SDS011;16404;49.902;10.074;2023-03-01T08:22:49;66.20;;;28.27;;
29430;SDS011;16404;49.902;10.074;2023-03-01T08:25:34;37.88;;;20.02;;
29430;SDS011;16404;49.902;10.074;2023-03-01T08:28:18;30.58;;;17.02;;
29430;SDS011;16404;49.902;10.074;2023-03-01T08:31:04;38.30;;;19.35;;
29430;SDS011;16404;49.902;10.074;2023-03-01T08:36:44;31.88;;;17.77;;
29430;SDS011;16404;49.902;10.074;2023-03-01T08:39:30;33.75;;;17.67;;
29430;SDS011;16404;49.902;10.074;2023-03-01T08:42:14;35.13;;;18.17;;
29430;SDS011;16404;49.902;10.074;2023-03-01T08:45:03;38.25;;;19.02;;
29430;SDS011;16404;49.902;10.074;2023-03-01T08:47:51;36.40;;;19.02;;
29430;SDS011;16404;49.902;10.074;2023-03-01T08:50:36;34.78;;;19.50;;
29430;SDS011;16404;49.902;10.074;2023-03-01T08:53:21;34.83;;;19.08;;
29430;SDS011;16404;49.902;10.074;2023-03-01T08:56:07;33.00;;;18.75;;
29430;SDS011;16404;49.902;10.074;2023-03-01T08:58:55;33.60;;;19.30;;
29430;SDS011;16404;49.902;10.074;2023-03-01T09:01:40;32.17;;;19.17;;
29430;SDS011;16404;49.902;10.074;2023-03-01T09:04:26;31.17;;;18.10;;
29430;SDS011;16404;49.902;10.074;2023-03-01T09:07:11;31.15;;;17.77;;
29430;SDS011;16404;49.902;10.074;2023-03-01T09:09:56;35.22;;;18.92;;
29430;SDS011;16404;49.902;10.074;2023-03-01T09:12:40;36.28;;;18.30;;
29430;SDS011;16404;49.902;10.074;2023-03-01T09:15:25;35.15;;;19.50;;
29430;SDS011;16404;49.902;10.074;2023-03-01T09:18:10;28.77;;;17.17;;
29430;SDS011;16404;49.902;10.074;2023-03-01T09:24:11;30.67;;;17.85;;
29430;SDS011;16404;49.902;10.074;2023-03-01T09:26:57;27.38;;;17.17;;
29430;SDS011;16404;49.902;10.074;2023-03-01T09:29:42;27.17;;;16.50;;
29430;SDS011;16404;49.902;10.074;2023-03-01T09:32:27;29.40;;;17.20;;
29430;SDS011;16404;49.902;10.074;2023-03-01T09:35:14;28.45;;;16.90;;
29430;SDS011;16404;49.902;10.074;2023-03-01T09:37:58;31.33;;;17.13;;
29430;SDS011;16404;49.902;10.074;2023-03-01T09:40:43;30.75;;;17.50;;
29430;SDS011;16404;49.902;10.074;2023-03-01T09:46:15;32.85;;;18.30;;
29430;SDS011;16404;49.902;10.074;2023-03-01T09:49:05;30.55;;;17.73;;
29430;SDS011;16404;49.902;10.074;2023-03-01T09:55:13;33.35;;;18.55;;
29430;SDS011;16404;49.902;10.074;2023-03-01T10:10:14;32.05;;;17.85;;
29430;SDS011;16404;49.902;10.074;2023-03-01T10:16:38;31.58;;;17.90;;
29430;SDS011;16404;49.902;10.074;2023-03-01T10:19:27;32.17;;;17.60;;
29430;SDS011;16404;49.902;10.074;2023-03-01T10:22:20;30.40;;;17.58;;
29430;SDS011;16404;49.902;10.074;2023-03-01T10:25:06;31.67;;;17.80;;
29430;SDS011;16404;49.902;10.074;2023-03-01T10:28:01;33.35;;;18.60;;
29430;SDS011;16404;49.902;10.074;2023-03-01T10:30:53;32.20;;;18.17;;
29430;SDS011;16404;49.902;10.074;2023-03-01T10:33:38;32.42;;;17.85;;
29430;SDS011;16404;49.902;10.074;2023-03-01T10:36:24;29.65;;;16.27;;
29430;SDS011;16404;49.902;10.074;2023-03-01T10:39:19;28.55;;;16.85;;
29430;SDS011;16404;49.902;10.074;2023-03-01T10:42:13;28.88;;;16.63;;
29430;SDS011;16404;49.902;10.074;2023-03-01T10:53:48;29.38;;;17.38;;
29430;SDS011;16404;49.902;10.074;2023-03-01T10:56:45;30.30;;;16.90;;
29430;SDS011;16404;49.902;10.074;2023-03-01T10:59:35;30.23;;;17.30;;
29430;SDS011;16404;49.902;10.074;2023-03-01T11:02:23;34.40;;;16.63;;
29430;SDS011;16404;49.902;10.074;2023-03-01T11:07:58;29.02;;;16.55;;
29430;SDS011;16404;49.902;10.074;2023-03-01T11:10:43;29.83;;;16.27;;
29430;SDS011;16404;49.902;10.074;2023-03-01T11:13:28;32.40;;;16.40;;
29430;SDS011;16404;49.902;10.074;2023-03-01T11:16:12;30.60;;;16.67;;
29430;SDS011;16404;49.902;10.074;2023-03-01T11:22:02;30.75;;;16.60;;
29430;SDS011;16404;49.902;10.074;2023-03-01T11:24:49;31.38;;;16.92;;
29430;SDS011;16404;49.902;10.074;2023-03-01T11:27:43;30.13;;;16.90;;
29430;SDS011;16404;49.902;10.074;2023-03-01T11:30:34;34.17;;;16.42;;
29430;SDS011;16404;49.902;10.074;2023-03-01T11:36:36;32.50;;;15.70;;
29430;SDS011;16404;49.902;10.074;2023-03-01T11:42:46;29.08;;;16.13;;
29430;SDS011;16404;49.902;10.074;2023-03-01T11:45:53;31.55;;;16.63;;
29430;SDS011;16404;49.902;10.074;2023-03-01T11:58:20;35.40;;;17.30;;
29430;SDS011;16404;49.902;10.074;2023-03-01T12:01:23;28.52;;;16.15;;
29430;SDS011;16404;49.902;10.074;2023-03-01T12:04:30;28.70;;;16.05;;
29430;SDS011;16404;49.902;10.074;2023-03-01T12:10:20;29.80;;;16.27;;
29430;SDS011;16404;49.902;10.074;2023-03-01T12:19:42;29.77;;;16.60;;
29430;SDS011;16404;49.902;10.074;2023-03-01T12:26:16;27.27;;;16.80;;
29430;SDS011;16404;49.902;10.074;2023-03-01T12:29:33;27.75;;;16.52;;
29430;SDS011;16404;49.902;10.074;2023-03-01T12:38:14;32.17;;;16.92;;
29430;SDS011;16404;49.902;10.074;2023-03-01T12:47:26;28.05;;;16.08;;
29430;SDS011;16404;49.902;10.074;2023-03-01T12:50:37;31.08;;;15.98;;
29430;SDS011;16404;49.902;10.074;2023-03-01T12:53:26;28.48;;;16.40;;
29430;SDS011;16404;49.902;10.074;2023-03-01T12:56:15;26.50;;;15.98;;
29430;SDS011;16404;49.902;10.074;2023-03-01T12:59:12;29.67;;;16.48;;
29430;SDS011;16404;49.902;10.074;2023-03-01T13:02:27;30.65;;;16.20;;
29430;SDS011;16404;49.902;10.074;2023-03-01T13:11:15;32.05;;;16.33;;
29430;SDS011;16404;49.902;10.074;2023-03-01T13:17:32;30.17;;;16.45;;
29430;SDS011;16404;49.902;10.074;2023-03-01T13:26:05;27.63;;;15.73;;
29430;SDS011;16404;49.902;10.074;2023-03-01T13:28:59;24.73;;;15.38;;
29430;SDS011;16404;49.902;10.074;2023-03-01T13:34:39;28.40;;;16.45;;
29430;SDS011;16404;49.902;10.074;2023-03-01T13:37:30;25.33;;;14.63;;
29430;SDS011;16404;49.902;10.074;2023-03-01T13:43:26;23.55;;;13.95;;
29430;SDS011;16404;49.902;10.074;2023-03-01T13:46:23;25.17;;;14.55;;
29430;SDS011;16404;49.902;10.074;2023-03-01T13:49:09;25.10;;;13.90;;
29430;SDS011;16404;49.902;10.074;2023-03-01T13:52:02;24.05;;;14.05;;
29430;SDS011;16404;49.902;10.074;2023-03-01T13:54:49;22.60;;;14.93;;
29430;SDS011;16404;49.902;10.074;2023-03-01T13:57:34;26.85;;;15.45;;
29430;SDS011;16404;49.902;10.074;2023-03-01T14:03:17;25.35;;;14.63;;
29430;SDS011;16404;49.902;10.074;2023-03-01T14:06:07;25.55;;;13.57;;
29430;SDS011;16404;49.902;10.074;2023-03-01T14:14:59;25.13;;;12.07;;
29430;SDS011;16404;49.902;10.074;2023-03-01T14:18:02;22.67;;;13.75;;
29430;SDS011;16404;49.902;10.074;2023-03-01T14:20:53;30.65;;;13.23;;
29430;SDS011;16404;49.902;10.074;2023-03-01T14:23:38;23.45;;;14.02;;
29430;SDS011;16404;49.902;10.074;2023-03-01T14:26:23;21.73;;;12.68;;
29430;SDS011;16404;49.902;10.074;2023-03-01T14:29:22;24.05;;;13.32;;
29430;SDS011;16404;49.902;10.074;2023-03-01T14:32:22;24.05;;;12.52;;
29430;SDS011;16404;49.902;10.074;2023-03-01T14:35:20;24.55;;;13.35;;
29430;SDS011;16404;49.902;10.074;2023-03-01T14:38:19;21.75;;;12.50;;
29430;SDS011;16404;49.902;10.074;2023-03-01T14:41:07;21.23;;;12.07;;
29430;SDS011;16404;49.902;10.074;2023-03-01T14:46:46;25.83;;;12.90;;
29430;SDS011;16404;49.902;10.074;2023-03-01T14:49:35;22.63;;;13.68;;
29430;SDS011;16404;49.902;10.074;2023-03-01T14:52:21;24.48;;;13.23;;
29430;SDS011;16404;49.902;10.074;2023-03-01T14:55:16;20.40;;;11.68;;
29430;SDS011;16404;49.902;10.074;2023-03-01T14:58:03;18.65;;;11.80;;
29430;SDS011;16404;49.902;10.074;2023-03-01T15:00:59;18.75;;;12.02;;
29430;SDS011;16404;49.902;10.074;2023-03-01T15:03:47;23.73;;;12.60;;
29430;SDS011;16404;49.902;10.074;2023-03-01T15:06:33;22.00;;;11.73;;
29430;SDS011;16404;49.902;10.074;2023-03-01T15:09:17;18.00;;;11.50;;
29430;SDS011;16404;49.902;10.074;2023-03-01T15:15:19;21.20;;;11.43;;
29430;SDS011;16404;49.902;10.074;2023-03-01T15:21:44;20.55;;;11.65;;
29430;SDS011;16404;49.902;10.074;2023-03-01T15:24:28;20.63;;;11.82;;
29430;SDS011;16404;49.902;10.074;2023-03-01T15:27:16;21.33;;;12.60;;
29430;SDS011;16404;49.902;10.074;2023-03-01T15:30:03;21.10;;;12.45;;
29430;SDS011;16404;49.902;10.074;2023-03-01T15:48:01;20.92;;;12.82;;
29430;SDS011;16404;49.902;10.074;2023-03-01T15:51:04;23.33;;;12.50;;
29430;SDS011;16404;49.902;10.074;2023-03-01T15:53:55;24.30;;;12.52;;
29430;SDS011;16404;49.902;10.074;2023-03-01T15:56:42;21.40;;;12.43;;
29430;SDS011;16404;49.902;10.074;2023-03-01T15:59:28;25.25;;;12.15;;
29430;SDS011;16404;49.902;10.074;2023-03-01T16:02:12;23.40;;;12.25;;
29430;SDS011;16404;49.902;10.074;2023-03-01T16:04:57;22.48;;;13.50;;
29430;SDS011;16404;49.902;10.074;2023-03-01T16:07:42;25.02;;;13.32;;
29430;SDS011;16404;49.902;10.074;2023-03-01T16:10:26;24.33;;;13.20;;
29430;SDS011;16404;49.902;10.074;2023-03-01T16:15:56;24.17;;;14.00;;
29430;SDS011;16404;49.902;10.074;2023-03-01T16:18:43;26.48;;;13.65;;
29430;SDS011;16404;49.902;10.074;2023-03-01T16:21:28;23.60;;;13.63;;
29430;SDS011;16404;49.902;10.074;2023-03-01T16:24:13;24.15;;;14.02;;
29430;SDS011;16404;49.902;10.074;2023-03-01T16:26:58;22.98;;;13.90;;
29430;SDS011;16404;49.902;10.074;2023-03-01T16:29:43;25.00;;;13.65;;
29430;SDS011;16404;49.902;10.074;2023-03-01T16:32:27;25.48;;;14.25;;
29430;SDS011;16404;49.902;10.074;2023-03-01T16:35:16;25.05;;;14.60;;
29430;SDS011;16404;49.902;10.074;2023-03-01T16:38:02;27.85;;;14.32;;
29430;SDS011;16404;49.902;10.074;2023-03-01T16:40:47;24.80;;;13.98;;
29430;SDS011;16404;49.902;10.074;2023-03-01T16:43:32;26.15;;;15.77;;
29430;SDS011;16404;49.902;10.074;2023-03-01T16:46:22;27.35;;;15.02;;
29430;SDS011;16404;49.902;10.074;2023-03-01T16:49:08;27.02;;;14.38;;
29430;SDS011;16404;49.902;10.074;2023-03-01T16:51:53;28.08;;;14.60;;
29430;SDS011;16404;49.902;10.074;2023-03-01T16:54:38;26.00;;;14.75;;
29430;SDS011;16404;49.902;10.074;2023-03-01T16:57:22;26.02;;;14.15;;
29430;SDS011;16404;49.902;10.074;2023-03-01T17:00:07;27.73;;;15.40;;
29430;SDS011;16404;49.902;10.074;2023-03-01T17:02:56;26.70;;;14.15;;
29430;SDS011;16404;49.902;10.074;2023-03-01T17:05:41;23.33;;;14.32;;
29430;SDS011;16404;49.902;10.074;2023-03-01T17:08:26;27.20;;;15.27;;
29430;SDS011;16404;49.902;10.074;2023-03-01T17:11:14;27.40;;;16.48;;
29430;SDS011;16404;49.902;10.074;2023-03-01T17:14:01;26.50;;;15.10;;
29430;SDS011;16404;49.902;10.074;2023-03-01T17:16:45;26.52;;;14.80;;
29430;SDS011;16404;49.902;10.074;2023-03-01T17:19:30;29.73;;;15.85;;
29430;SDS011;16404;49.902;10.074;2023-03-01T17:22:15;26.90;;;15.35;;
29430;SDS011;16404;49.902;10.074;2023-03-01T17:25:00;27.48;;;14.93;;
29430;SDS011;16404;49.902;10.074;2023-03-01T17:27:45;28.23;;;15.48;;
29430;SDS011;16404;49.902;10.074;2023-03-01T17:30:29;29.98;;;16.85;;
29430;SDS011;16404;49.902;10.074;2023-03-01T17:33:14;29.23;;;15.55;;
29430;SDS011;16404;49.902;10.074;2023-03-01T17:38:43;28.90;;;16.27;;
29430;SDS011;16404;49.902;10.074;2023-03-01T17:41:29;31.02;;;16.13;;
29430;SDS011;16404;49.902;10.074;2023-03-01T17:44:13;29.35;;;15.93;;
29430;SDS011;16404;49.902;10.074;2023-03-01T17:46:58;30.20;;;16.23;;
29430;SDS011;16404;49.902;10.074;2023-03-01T17:52:27;29.33;;;16.02;;
29430;SDS011;16404;49.902;10.074;2023-03-01T17:55:12;33.03;;;16.65;;
29430;SDS011;16404;49.902;10.074;2023-03-01T17:57:56;30.17;;;16.10;;
29430;SDS011;16404;49.902;10.074;2023-03-01T18:00:41;31.05;;;17.02;;
29430;SDS011;16404;49.902;10.074;2023-03-01T18:03:26;32.05;;;15.65;;
29430;SDS011;16404;49.902;10.074;2023-03-01T18:06:11;31.00;;;16.63;;
29430;SDS011;16404;49.902;10.074;2023-03-01T18:09:00;30.23;;;17.50;;
29430;SDS011;16404;49.902;10.074;2023-03-01T18:11:45;29.15;;;16.95;;
29430;SDS011;16404;49.902;10.074;2023-03-01T18:14:29;28.30;;;15.57;;
29430;SDS011;16404;49.902;10.074;2023-03-01T18:17:16;32.80;;;17.17;;
29430;SDS011;16404;49.902;10.074;2023-03-01T18:20:00;35.63;;;17.45;;
29430;SDS011;16404;49.902;10.074;2023-03-01T18:22:45;30.75;;;15.85;;
29430;SDS011;16404;49.902;10.074;2023-03-01T18:25:30;33.25;;;18.23;;
29430;SDS011;16404;49.902;10.074;2023-03-01T18:28:15;30.55;;;17.08;;
29430;SDS011;16404;49.902;10.074;2023-03-01T18:31:01;28.27;;;15.60;;
29430;SDS011;16404;49.902;10.074;2023-03-01T18:33:56;31.77;;;17.38;;
29430;SDS011;16404;49.902;10.074;2023-03-01T18:36:40;32.33;;;17.15;;
29430;SDS011;16404;49.902;10.074;2023-03-01T18:39:25;35.60;;;17.05;;
29430;SDS011;16404;49.902;10.074;2023-03-01T18:42:10;29.90;;;17.40;;
29430;SDS011;16404;49.902;10.074;2023-03-01T18:44:54;30.45;;;17.42;;
29430;SDS011;16404;49.902;10.074;2023-03-01T18:47:39;31.77;;;17.77;;
29430;SDS011;16404;49.902;10.074;2023-03-01T18:50:24;36.38;;;18.17;;